createdAt,value
2018-12-19T00:00:28.710Z,240.03
2018-12-19T00:02:59.031Z,251.90
2018-12-19T00:05:28.995Z,224.57
2018-12-19T00:07:56.986Z,239.67
2018-12-19T00:10:24.983Z,230.80
2018-12-19T00:12:53.958Z,239.83
2018-12-19T00:15:21.849Z,224.20
2018-12-19T00:17:51.873Z,238.67
2018-12-19T00:20:20.026Z,222.20
2018-12-19T00:22:48.044Z,235.50
2018-12-19T00:25:16.191Z,223.97
2018-12-19T00:27:46.272Z,241.07
2018-12-19T00:30:16.186Z,245.13
2018-12-19T00:32:46.399Z,246.50
2018-12-19T00:35:16.315Z,225.43
2018-12-19T00:37:44.370Z,225.53
2018-12-19T00:40:12.580Z,226.03
2018-12-19T00:42:40.854Z,221.23
2018-12-19T00:45:08.836Z,222.43
2018-12-19T00:47:36.814Z,237.70
2018-12-19T00:50:05.823Z,220.00
2018-12-19T00:52:34.077Z,237.23
2018-12-19T00:55:01.906Z,223.23
2018-12-19T00:57:29.923Z,251.60
2018-12-19T01:02:33.869Z,227.30
2018-12-19T01:05:01.916Z,221.70
2018-12-19T01:07:31.243Z,227.27
2018-12-19T01:09:59.255Z,223.73
2018-12-19T01:12:27.286Z,226.83
2018-12-19T01:14:55.150Z,237.23
2018-12-19T01:17:23.096Z,232.17
2018-12-19T01:19:51.142Z,233.90
2018-12-19T01:22:19.306Z,201.97
2018-12-19T01:25:04.339Z,196.60
2018-12-19T01:27:32.358Z,216.03
2018-12-19T01:30:00.156Z,203.80
2018-12-19T01:32:28.032Z,215.20
2018-12-19T01:34:55.957Z,209.30
2018-12-19T01:37:23.871Z,231.83
2018-12-19T01:39:51.884Z,203.07
2018-12-19T01:42:19.966Z,218.43
2018-12-19T01:44:47.834Z,196.40
2018-12-19T01:47:15.645Z,224.80
2018-12-19T01:49:44.497Z,209.23
2018-12-19T01:52:12.537Z,212.67
2018-12-19T01:54:40.504Z,195.30
2018-12-19T01:57:08.341Z,215.50
2018-12-19T01:59:36.356Z,207.70
2018-12-19T02:02:04.306Z,197.73
2018-12-19T02:04:33.441Z,201.90
2018-12-19T02:07:01.565Z,204.00
2018-12-19T02:09:30.105Z,216.53
2018-12-19T02:11:57.966Z,222.30
2018-12-19T02:14:25.807Z,214.50
2018-12-19T02:16:54.059Z,219.60
2018-12-19T02:19:21.919Z,214.27
2018-12-19T02:21:49.745Z,214.17
2018-12-19T02:24:17.701Z,212.20
2018-12-19T02:26:45.744Z,225.37
2018-12-19T02:29:13.813Z,218.20
2018-12-19T02:31:46.112Z,215.57
2018-12-19T02:34:14.257Z,207.07
2018-12-19T02:36:42.225Z,216.83
2018-12-19T02:39:10.053Z,212.57
2018-12-19T02:41:37.964Z,210.77
2018-12-19T02:44:05.973Z,200.23
2018-12-19T02:46:33.915Z,194.57
2018-12-19T02:49:01.818Z,204.10
2018-12-19T02:51:29.625Z,194.47
2018-12-19T02:53:57.493Z,216.33
2018-12-19T02:56:25.410Z,201.70
2018-12-19T02:58:53.339Z,202.17
2018-12-19T03:01:21.436Z,192.63
2018-12-19T03:03:49.497Z,196.20
2018-12-19T03:06:17.848Z,190.33
2018-12-19T03:08:45.752Z,169.83
2018-12-19T03:13:57.402Z,183.37
2018-12-19T03:16:26.544Z,178.20
2018-12-19T03:18:54.349Z,180.17
2018-12-19T03:21:22.555Z,192.60
2018-12-19T03:23:50.362Z,186.57
2018-12-19T03:26:18.229Z,178.60
2018-12-19T03:28:46.097Z,178.43
2018-12-19T03:31:13.909Z,176.47
2018-12-19T03:33:41.717Z,178.23
2018-12-19T03:36:09.980Z,175.93
2018-12-19T03:38:37.880Z,176.13
2018-12-19T03:41:05.740Z,176.00
2018-12-19T03:43:33.871Z,186.67
2018-12-19T03:46:01.737Z,182.03
2018-12-19T03:48:36.316Z,182.97
2018-12-19T03:51:04.384Z,177.23
2018-12-19T03:53:32.171Z,186.87
2018-12-19T03:56:00.999Z,191.43
2018-12-19T03:58:28.769Z,193.73
2018-12-19T04:00:56.934Z,198.73
2018-12-19T04:03:24.934Z,186.60
2018-12-19T04:05:54.005Z,182.57
2018-12-19T04:08:21.897Z,182.67
2018-12-19T04:10:49.727Z,190.67
2018-12-19T04:13:17.564Z,201.43
2018-12-19T04:15:45.346Z,200.67
2018-12-19T04:18:13.211Z,195.77
2018-12-19T04:20:40.983Z,177.63
2018-12-19T04:23:09.306Z,185.90
2018-12-19T04:25:38.228Z,190.40
2018-12-19T04:28:06.171Z,193.10
2018-12-19T04:30:36.933Z,198.00
2018-12-19T04:33:04.897Z,185.07
2018-12-19T04:35:32.929Z,197.47
2018-12-19T04:38:00.900Z,198.70
2018-12-19T04:40:28.703Z,182.47
2018-12-19T04:42:56.659Z,199.20
2018-12-19T04:45:24.608Z,183.07
2018-12-19T04:47:53.661Z,204.37
2018-12-19T04:50:21.626Z,188.13
2018-12-19T04:52:49.577Z,203.87
2018-12-19T04:55:17.520Z,193.77
2018-12-19T04:57:45.371Z,186.00
2018-12-19T05:00:13.471Z,185.87
2018-12-19T05:02:41.348Z,197.23
2018-12-19T05:05:09.506Z,185.60
2018-12-19T05:07:37.374Z,191.10
2018-12-19T05:10:12.150Z,186.27
2018-12-19T05:12:35.592Z,212.33
2018-12-19T05:15:04.030Z,189.50
2018-12-19T05:17:32.038Z,187.07
2018-12-19T05:20:00.218Z,168.07
2018-12-19T05:22:28.025Z,158.83
2018-12-19T05:24:55.861Z,169.80
2018-12-19T05:27:23.792Z,189.70
2018-12-19T05:29:53.190Z,181.23
2018-12-19T05:32:21.466Z,186.47
2018-12-19T05:34:49.686Z,175.20
2018-12-19T05:37:17.556Z,183.33
2018-12-19T05:39:45.381Z,171.30
2018-12-19T05:42:13.158Z,187.27
2018-12-19T05:44:41.243Z,168.67
2018-12-19T05:47:09.957Z,187.70
2018-12-19T05:49:38.081Z,169.90
2018-12-19T05:52:05.849Z,187.37
2018-12-19T05:54:33.620Z,167.17
2018-12-19T05:57:01.609Z,182.37
2018-12-19T05:59:29.396Z,174.37
2018-12-19T06:01:59.263Z,173.70
2018-12-19T06:04:27.056Z,178.27
2018-12-19T06:06:55.034Z,194.00
2018-12-19T06:09:23.175Z,173.77
2018-12-19T06:11:50.949Z,168.77
2018-12-19T06:14:24.977Z,168.10
2018-12-19T06:16:52.853Z,163.73
2018-12-19T06:19:20.607Z,165.47
2018-12-19T06:21:48.414Z,182.90
2018-12-19T06:24:16.261Z,162.23
2018-12-19T06:26:43.989Z,168.67
2018-12-19T06:29:11.747Z,171.80
2018-12-19T06:31:39.503Z,173.70
2018-12-19T06:34:07.257Z,166.40
2018-12-19T06:36:35.048Z,159.20
2018-12-19T06:39:05.571Z,159.87
2018-12-19T06:41:34.756Z,154.43
2018-12-19T06:44:02.696Z,156.03
2018-12-19T06:46:30.669Z,153.73
2018-12-19T06:48:58.608Z,157.53
2018-12-19T06:51:26.354Z,161.03
2018-12-19T06:53:54.301Z,157.60
2018-12-19T06:56:23.692Z,159.77
2018-12-19T06:58:52.020Z,137.70
2018-12-19T07:01:19.844Z,145.40
2018-12-19T07:03:47.718Z,144.17
2018-12-19T07:06:15.656Z,146.57
2018-12-19T07:08:43.509Z,144.57
2018-12-19T07:11:11.468Z,151.33
2018-12-19T07:13:39.336Z,136.40
2018-12-19T07:16:07.116Z,140.97
2018-12-19T07:18:34.989Z,142.70
2018-12-19T07:21:02.883Z,139.27
2018-12-19T07:23:30.814Z,146.07
2018-12-19T07:25:58.666Z,135.37
2018-12-19T07:28:26.549Z,156.00
2018-12-19T07:30:54.703Z,132.70
2018-12-19T07:33:22.549Z,142.17
2018-12-19T07:35:50.570Z,150.80
2018-12-19T07:38:19.593Z,142.87
2018-12-19T07:40:47.412Z,152.87
2018-12-19T07:43:15.220Z,137.60
2018-12-19T07:45:43.213Z,142.00
2018-12-19T07:48:11.696Z,146.97
2018-12-19T07:50:39.546Z,148.27
2018-12-19T07:53:07.479Z,147.57
2018-12-19T07:58:17.480Z,142.60
2018-12-19T08:00:46.348Z,150.17
2018-12-19T08:03:14.380Z,149.13
2018-12-19T08:05:42.198Z,146.90
2018-12-19T08:08:10.086Z,142.83
2018-12-19T08:10:38.059Z,144.53
2018-12-19T08:13:05.985Z,146.13
2018-12-19T08:15:33.781Z,138.93
2018-12-19T08:18:01.616Z,147.97
2018-12-19T08:20:29.955Z,142.43
2018-12-19T08:22:57.841Z,153.83
2018-12-19T08:25:25.742Z,138.67
2018-12-19T08:27:53.693Z,153.60
2018-12-19T08:30:21.637Z,155.27
2018-12-19T08:32:49.464Z,162.30
2018-12-19T08:35:17.284Z,152.13
2018-12-19T08:37:45.172Z,145.87
2018-12-19T08:40:12.969Z,144.53
2018-12-19T08:42:40.811Z,155.57
2018-12-19T08:45:09.081Z,141.57
2018-12-19T08:47:36.993Z,154.80
2018-12-19T08:50:07.794Z,146.30
2018-12-19T08:52:35.578Z,149.43
2018-12-19T08:55:03.791Z,148.10
2018-12-19T08:57:32.703Z,155.93
2018-12-19T09:00:00.625Z,141.03
2018-12-19T09:02:28.555Z,148.80
2018-12-19T09:04:56.318Z,144.90
2018-12-19T09:07:24.193Z,155.40
2018-12-19T09:09:52.092Z,148.07
2018-12-19T09:12:19.928Z,152.57
2018-12-19T09:14:47.898Z,139.50
2018-12-19T09:17:16.186Z,152.63
2018-12-19T09:19:44.316Z,147.47
2018-12-19T09:22:12.453Z,155.10
2018-12-19T09:24:40.205Z,148.83
2018-12-19T09:27:08.249Z,147.03
2018-12-19T09:29:36.101Z,142.83
2018-12-19T09:32:05.766Z,149.80
2018-12-19T09:34:33.584Z,143.17
2018-12-19T09:37:01.583Z,153.40
2018-12-19T09:39:30.401Z,145.50
2018-12-19T09:41:58.344Z,150.30
2018-12-19T09:44:26.288Z,144.50
2018-12-19T09:46:54.084Z,138.73
2018-12-19T09:49:24.927Z,143.47
2018-12-19T09:51:52.728Z,158.63
2018-12-19T09:54:21.708Z,145.17
2018-12-19T09:56:49.496Z,146.03
2018-12-19T09:59:17.661Z,153.23
2018-12-19T10:01:45.471Z,148.03
2018-12-19T10:04:13.264Z,146.93
2018-12-19T10:06:41.123Z,148.13
2018-12-19T10:09:14.841Z,144.07
2018-12-19T10:11:40.256Z,144.73
2018-12-19T10:14:08.405Z,143.20
2018-12-19T10:16:36.224Z,146.23
2018-12-19T10:19:04.146Z,144.87
2018-12-19T10:21:32.817Z,146.03
2018-12-19T10:24:00.777Z,144.70
2018-12-19T10:26:28.649Z,147.53
2018-12-19T10:28:56.524Z,146.33
2018-12-19T10:31:24.583Z,166.07
2018-12-19T10:33:52.356Z,161.63
2018-12-19T10:36:24.774Z,154.33
2018-12-19T10:38:52.852Z,147.03
2018-12-19T10:41:25.457Z,151.93
2018-12-19T10:43:54.113Z,153.00
2018-12-19T10:46:22.035Z,150.43
2018-12-19T10:48:49.864Z,165.53
2018-12-19T10:51:17.717Z,171.30
2018-12-19T10:53:45.669Z,150.47
2018-12-19T10:56:13.496Z,153.40
2018-12-19T10:58:41.309Z,154.47
2018-12-19T11:01:09.333Z,155.43
2018-12-19T11:03:37.342Z,150.60
2018-12-19T11:06:05.468Z,142.33
2018-12-19T11:08:33.465Z,145.10
2018-12-19T11:11:01.390Z,143.10
2018-12-19T11:13:29.265Z,142.70
2018-12-19T11:15:57.173Z,142.33
2018-12-19T11:18:24.968Z,146.37
2018-12-19T11:20:52.926Z,146.40
2018-12-19T11:23:20.749Z,144.27
2018-12-19T11:25:48.677Z,148.50
2018-12-19T11:28:16.899Z,149.97
2018-12-19T11:30:44.956Z,151.00
2018-12-19T11:33:12.831Z,143.53
2018-12-19T11:35:40.617Z,151.63
2018-12-19T11:38:08.513Z,149.17
2018-12-19T11:40:36.294Z,144.93
2018-12-19T11:43:05.011Z,149.03
2018-12-19T11:45:33.860Z,145.37
2018-12-19T11:48:04.871Z,148.80
2018-12-19T11:50:32.800Z,146.53
2018-12-19T11:53:00.566Z,155.47
2018-12-19T11:55:28.753Z,151.73
2018-12-19T11:57:56.647Z,153.23
2018-12-19T12:00:24.442Z,149.97
2018-12-19T12:02:52.356Z,164.73
2018-12-19T12:05:20.131Z,152.17
2018-12-19T12:07:48.047Z,159.93
2018-12-19T12:10:15.852Z,163.40
2018-12-19T12:12:43.641Z,152.10
2018-12-19T12:15:11.623Z,155.60
2018-12-19T12:17:39.532Z,156.00
2018-12-19T12:20:08.173Z,145.73
2018-12-19T12:22:36.302Z,158.60
2018-12-19T12:25:05.127Z,153.97
2018-12-19T12:27:33.116Z,160.93
2018-12-19T12:30:01.132Z,161.70
2018-12-19T12:32:29.197Z,161.63
2018-12-19T12:34:57.340Z,151.50
2018-12-19T12:37:25.129Z,163.10
2018-12-19T12:39:53.232Z,148.03
2018-12-19T12:45:07.959Z,151.07
2018-12-19T12:47:35.947Z,154.13
2018-12-19T12:50:04.817Z,147.53
2018-12-19T12:52:32.821Z,150.60
2018-12-19T12:55:00.890Z,149.97
2018-12-19T12:57:28.801Z,142.43
2018-12-19T12:59:56.621Z,139.37
2018-12-19T13:02:24.389Z,154.80
2018-12-19T13:04:52.155Z,141.70
2018-12-19T13:07:20.148Z,149.33
2018-12-19T13:09:47.985Z,137.60
2018-12-19T13:12:15.956Z,158.97
2018-12-19T13:14:44.193Z,139.93
2018-12-19T13:17:11.985Z,155.17
2018-12-19T13:19:40.067Z,141.63
2018-12-19T13:22:08.040Z,147.83
2018-12-19T13:24:36.202Z,134.87
2018-12-19T13:27:04.125Z,143.77
2018-12-19T13:29:31.909Z,149.80
2018-12-19T13:32:00.134Z,149.87
2018-12-19T13:34:28.081Z,146.13
2018-12-19T13:36:56.156Z,139.40
2018-12-19T13:39:23.962Z,142.47
2018-12-19T13:41:51.813Z,149.07
2018-12-19T13:44:29.066Z,145.03
2018-12-19T13:47:01.520Z,149.10
2018-12-19T13:49:30.953Z,150.77
2018-12-19T13:52:06.082Z,161.10
2018-12-19T13:54:34.485Z,149.00
2018-12-19T13:57:02.368Z,147.37
2018-12-19T13:59:30.226Z,145.57
2018-12-19T14:01:58.279Z,156.13
2018-12-19T14:04:26.273Z,148.47
2018-12-19T14:06:54.310Z,147.47
2018-12-19T14:09:22.166Z,153.70
2018-12-19T14:11:50.151Z,146.27
2018-12-19T14:14:18.843Z,166.53
2018-12-19T14:16:48.278Z,152.47
2018-12-19T14:19:16.485Z,152.53
2018-12-19T14:21:44.643Z,162.80
2018-12-19T14:24:12.656Z,154.17
2018-12-19T14:26:40.471Z,145.13
2018-12-19T14:29:08.373Z,150.80
2018-12-19T14:31:36.907Z,145.47
2018-12-19T14:34:04.710Z,153.03
2018-12-19T14:36:32.717Z,153.53
2018-12-19T14:39:00.679Z,145.13
2018-12-19T14:41:28.967Z,152.63
2018-12-19T14:43:56.972Z,157.33
2018-12-19T14:46:25.072Z,147.07
2018-12-19T14:48:52.878Z,147.43
2018-12-19T14:51:21.108Z,151.70
2018-12-19T14:53:49.502Z,148.83
2018-12-19T14:56:17.319Z,179.63
2018-12-19T14:58:45.161Z,156.47
2018-12-19T15:01:13.263Z,149.30
2018-12-19T15:03:41.617Z,150.07
2018-12-19T15:06:09.901Z,152.13
2018-12-19T15:08:37.864Z,162.33
2018-12-19T15:11:05.877Z,146.10
2018-12-19T15:13:33.832Z,144.73
2018-12-19T15:16:03.346Z,150.80
2018-12-19T15:18:31.668Z,149.50
2018-12-19T15:21:00.294Z,147.07
2018-12-19T15:23:28.281Z,152.57
2018-12-19T15:25:56.492Z,158.73
2018-12-19T15:28:27.728Z,149.27
2018-12-19T15:30:57.220Z,153.93
2018-12-19T15:33:25.252Z,156.87
2018-12-19T15:35:54.084Z,152.73
2018-12-19T15:38:22.083Z,147.80
2018-12-19T15:40:49.884Z,148.90
2018-12-19T15:43:21.971Z,156.87
2018-12-19T15:45:51.114Z,149.23
2018-12-19T15:48:20.695Z,145.30
2018-12-19T15:50:49.701Z,150.03
2018-12-19T15:53:17.604Z,155.37
2018-12-19T15:55:45.445Z,143.07
2018-12-19T15:58:13.323Z,146.80
2018-12-19T16:00:42.688Z,147.20
2018-12-19T16:03:10.536Z,147.07
2018-12-19T16:05:38.545Z,138.60
2018-12-19T16:08:07.841Z,147.20
2018-12-19T16:10:40.144Z,146.87
2018-12-19T16:13:10.633Z,149.93
2018-12-19T16:15:45.573Z,147.60
2018-12-19T16:18:13.837Z,153.80
2018-12-19T16:20:48.029Z,146.17
2018-12-19T16:23:15.823Z,150.13
2018-12-19T16:25:43.764Z,143.10
2018-12-19T16:28:11.608Z,154.03
2018-12-19T16:30:39.453Z,159.43
2018-12-19T16:33:07.579Z,149.40
2018-12-19T16:35:37.806Z,143.60
2018-12-19T16:38:05.922Z,158.97
2018-12-19T16:40:34.358Z,144.50
2018-12-19T16:43:02.341Z,154.10
2018-12-19T16:45:30.262Z,149.57
2018-12-19T16:47:58.113Z,156.20
2018-12-19T16:50:25.941Z,148.93
2018-12-19T16:53:00.429Z,153.00
2018-12-19T16:55:28.234Z,146.47
2018-12-19T16:57:56.090Z,157.63
2018-12-19T17:00:23.925Z,172.70
2018-12-19T17:02:51.887Z,159.90
2018-12-19T17:05:19.715Z,151.97
2018-12-19T17:07:47.696Z,162.93
2018-12-19T17:10:15.557Z,162.63
2018-12-19T17:12:43.713Z,156.47
2018-12-19T17:15:11.533Z,157.67
2018-12-19T17:17:39.524Z,163.83
2018-12-19T17:20:07.660Z,147.93
2018-12-19T17:22:35.555Z,172.50
2018-12-19T17:25:03.677Z,160.83
2018-12-19T17:27:31.548Z,163.70
2018-12-19T17:29:59.411Z,158.03
2018-12-19T17:32:27.581Z,166.37
2018-12-19T17:34:55.539Z,156.07
2018-12-19T17:37:26.903Z,158.87
2018-12-19T17:39:54.693Z,166.53
2018-12-19T17:42:22.540Z,184.43
2018-12-19T17:44:50.328Z,178.17
2018-12-19T17:47:18.170Z,178.60
2018-12-19T17:49:46.243Z,173.30
2018-12-19T17:52:14.123Z,202.07
2018-12-19T17:54:41.937Z,182.03
2018-12-19T17:57:09.771Z,198.40
2018-12-19T17:59:37.798Z,192.90
2018-12-19T18:02:06.119Z,200.40
2018-12-19T18:04:34.183Z,201.77
2018-12-19T18:07:02.295Z,214.57
2018-12-19T18:09:30.202Z,212.03
2018-12-19T18:11:58.268Z,201.60
2018-12-19T18:14:26.253Z,198.27
2018-12-19T18:16:54.283Z,202.83
2018-12-19T18:19:24.576Z,202.27
2018-12-19T18:21:52.680Z,206.67
2018-12-19T18:24:21.970Z,218.40
2018-12-19T18:26:50.173Z,211.90
2018-12-19T18:29:19.097Z,207.83
2018-12-19T18:31:47.114Z,197.27
2018-12-19T18:34:15.141Z,193.00
2018-12-19T18:36:43.182Z,194.87
2018-12-19T18:39:25.933Z,201.87
2018-12-19T18:41:50.454Z,188.77
2018-12-19T18:44:18.899Z,206.97
2018-12-19T18:46:46.708Z,204.67
2018-12-19T18:49:14.662Z,190.17
2018-12-19T18:51:42.954Z,183.30
2018-12-19T18:54:14.851Z,206.30
2018-12-19T18:56:43.258Z,203.80
2018-12-19T18:59:11.895Z,211.73
2018-12-19T19:01:40.088Z,212.93
2018-12-19T19:04:08.077Z,210.40
2018-12-19T19:06:36.914Z,205.37
2018-12-19T19:09:05.752Z,201.80
2018-12-19T19:11:35.661Z,197.77
2018-12-19T19:14:04.674Z,208.40
2018-12-19T19:16:32.668Z,196.43
2018-12-19T19:19:00.516Z,205.57
2018-12-19T19:21:28.755Z,212.27
2018-12-19T19:23:57.748Z,203.40
2018-12-19T19:26:25.639Z,210.23
2018-12-19T19:28:53.633Z,208.97
2018-12-19T19:31:21.805Z,211.77
2018-12-19T19:33:49.726Z,200.83
2018-12-19T19:36:17.797Z,212.80
2018-12-19T19:41:19.405Z,206.83
2018-12-19T19:43:47.337Z,207.90
2018-12-19T19:46:16.106Z,225.70
2018-12-19T19:48:43.976Z,217.73
2018-12-19T19:51:16.926Z,221.23
2018-12-19T19:53:42.841Z,218.83
2018-12-19T19:58:45.504Z,234.87
2018-12-19T20:01:14.419Z,234.97
2018-12-19T20:03:42.385Z,223.70
2018-12-19T20:06:11.217Z,221.13
2018-12-19T20:08:39.136Z,215.80
2018-12-19T20:11:07.288Z,221.90
2018-12-19T20:13:35.397Z,236.37
2018-12-19T20:16:03.436Z,224.70
2018-12-19T20:18:31.449Z,226.00
2018-12-19T20:24:09.101Z,250.63
2018-12-19T20:26:38.123Z,237.27
2018-12-19T20:29:08.922Z,251.33
2018-12-19T20:31:38.122Z,257.40
2018-12-19T20:34:06.925Z,268.87
2018-12-19T20:36:34.997Z,260.43
2018-12-19T20:39:05.910Z,265.50
2018-12-19T20:41:37.465Z,265.77
2018-12-19T20:44:06.858Z,267.30
2018-12-19T20:46:34.777Z,261.87
2018-12-19T20:49:02.721Z,244.17
2018-12-19T20:51:30.693Z,263.13
2018-12-19T20:53:58.737Z,261.53
2018-12-19T20:56:26.806Z,270.60
2018-12-19T20:58:55.115Z,251.40
2018-12-19T21:01:23.302Z,251.63
2018-12-19T21:03:51.204Z,256.77
2018-12-19T21:06:19.262Z,260.83
2018-12-19T21:08:47.334Z,246.30
2018-12-19T21:11:15.326Z,261.40
2018-12-19T21:13:46.673Z,269.40
2018-12-19T21:16:25.245Z,267.50
2018-12-19T21:18:53.226Z,247.00
2018-12-19T21:21:21.096Z,259.00
2018-12-19T21:23:49.122Z,252.57
2018-12-19T21:26:17.356Z,254.37
2018-12-19T21:28:45.304Z,251.87
2018-12-19T21:31:13.328Z,258.80
2018-12-19T21:33:41.154Z,244.50
2018-12-19T21:36:09.556Z,242.13
2018-12-19T21:38:37.539Z,263.67
2018-12-19T21:41:05.471Z,254.53
2018-12-19T21:43:33.328Z,250.13
2018-12-19T21:46:01.568Z,250.83
2018-12-19T21:48:29.358Z,242.83
2018-12-19T21:50:57.372Z,257.57
2018-12-19T21:53:25.203Z,264.67
2018-12-19T21:55:54.150Z,253.83
2018-12-19T21:58:22.057Z,255.80
2018-12-19T22:00:50.379Z,259.23
2018-12-19T22:03:18.409Z,254.77
2018-12-19T22:05:46.478Z,273.40
2018-12-19T22:08:16.052Z,272.97
2018-12-19T22:10:44.262Z,263.97
2018-12-19T22:13:12.228Z,260.73
2018-12-19T22:15:40.185Z,265.37
2018-12-19T22:18:14.143Z,266.97
2018-12-19T22:20:42.348Z,255.53
2018-12-19T22:23:10.767Z,255.33
2018-12-19T22:25:38.746Z,250.13
2018-12-19T22:28:07.474Z,254.77
2018-12-19T22:30:35.381Z,249.13
2018-12-19T22:33:03.451Z,267.87
2018-12-19T22:35:31.353Z,227.57
2018-12-19T22:37:59.187Z,264.37
2018-12-19T22:40:27.402Z,256.30
2018-12-19T22:42:55.449Z,269.90
2018-12-19T22:45:23.300Z,260.40
2018-12-19T22:47:51.277Z,270.70
2018-12-19T22:50:19.357Z,269.03
2018-12-19T22:52:47.393Z,271.60
2018-12-19T22:55:15.622Z,265.53
2018-12-19T22:57:43.673Z,277.37
2018-12-19T23:00:15.936Z,263.73
2018-12-19T23:02:51.838Z,261.77
2018-12-19T23:05:25.833Z,261.93
2018-12-19T23:07:53.884Z,277.53
2018-12-19T23:10:21.754Z,272.47
2018-12-19T23:12:49.813Z,256.70
2018-12-19T23:15:19.742Z,253.47
2018-12-19T23:17:58.469Z,281.60
2018-12-19T23:20:32.541Z,265.07
2018-12-19T23:23:06.896Z,263.93
2018-12-19T23:25:41.228Z,259.43
2018-12-19T23:28:11.273Z,271.73
2018-12-19T23:30:39.762Z,248.33
2018-12-19T23:33:07.723Z,266.37
2018-12-19T23:35:35.608Z,266.67
2018-12-19T23:38:03.837Z,258.70
2018-12-19T23:40:31.901Z,264.83
2018-12-19T23:42:59.972Z,272.23
2018-12-19T23:45:27.840Z,248.07
2018-12-19T23:47:55.849Z,265.53
2018-12-19T23:50:24.054Z,273.30
2018-12-19T23:52:52.063Z,265.70
2018-12-19T23:55:19.994Z,243.37
2018-12-19T23:57:47.824Z,255.93
